createdAt,value
2019-05-10T00:03:39.785Z,9.32
2019-05-10T00:08:47.256Z,9.29
2019-05-10T00:13:58.984Z,9.22
2019-05-10T00:19:04.320Z,9.25
2019-05-10T00:24:09.564Z,9.33
2019-05-10T00:29:14.853Z,9.27
2019-05-10T00:34:20.101Z,9.15
2019-05-10T00:39:25.435Z,9.06
2019-05-10T00:44:30.878Z,9.00
2019-05-10T00:49:36.154Z,8.92
2019-05-10T00:54:41.428Z,8.89
2019-05-10T00:59:46.887Z,8.92
2019-05-10T01:04:52.175Z,8.88
2019-05-10T01:09:57.729Z,8.88
2019-05-10T01:15:03.048Z,8.85
2019-05-10T01:20:08.594Z,8.82
2019-05-10T01:25:13.986Z,8.83
2019-05-10T01:30:19.805Z,8.83
2019-05-10T01:35:25.303Z,8.83
2019-05-10T01:40:30.582Z,8.83
2019-05-10T01:45:35.839Z,8.81
2019-05-10T01:50:41.473Z,8.73
2019-05-10T01:55:52.345Z,8.73
2019-05-10T02:00:53.700Z,8.72
2019-05-10T02:05:59.040Z,8.66
2019-05-10T02:11:04.324Z,8.62
2019-05-10T02:16:09.594Z,8.57
2019-05-10T02:21:14.842Z,8.52
2019-05-10T02:26:20.106Z,8.48
2019-05-10T02:31:25.663Z,8.44
2019-05-10T02:36:30.924Z,8.42
2019-05-10T02:41:36.724Z,8.42
2019-05-10T02:46:42.009Z,8.47
2019-05-10T02:51:47.249Z,8.47
2019-05-10T02:56:54.096Z,8.49
2019-05-10T03:02:00.769Z,8.52
2019-05-10T03:07:06.847Z,8.47
2019-05-10T03:12:24.059Z,8.45
2019-05-10T03:17:30.478Z,8.44
2019-05-10T03:22:42.088Z,8.43
2019-05-10T03:27:47.929Z,8.41
2019-05-10T03:32:53.446Z,8.42
2019-05-10T03:37:58.992Z,8.42
2019-05-10T03:43:05.153Z,8.43
2019-05-10T03:48:11.233Z,8.47
2019-05-10T03:53:16.831Z,8.52
2019-05-10T03:58:22.095Z,8.57
2019-05-10T04:03:27.636Z,8.59
2019-05-10T04:08:32.865Z,8.61
2019-05-10T04:13:38.101Z,8.64
2019-05-10T04:18:43.363Z,8.63
2019-05-10T04:23:48.637Z,8.64
2019-05-10T04:28:53.926Z,8.63
2019-05-10T04:33:59.190Z,8.64
2019-05-10T04:39:06.012Z,8.68
2019-05-10T04:44:11.279Z,8.73
2019-05-10T04:49:16.546Z,8.82
2019-05-10T04:54:21.914Z,8.87
2019-05-10T04:59:27.173Z,8.94
2019-05-10T05:04:32.370Z,9.02
2019-05-10T05:09:37.604Z,9.14
2019-05-10T05:14:42.865Z,9.27
2019-05-10T05:19:48.142Z,9.39
2019-05-10T05:24:55.060Z,9.49
2019-05-10T05:30:00.667Z,9.54
2019-05-10T05:35:06.549Z,9.60
2019-05-10T05:40:12.927Z,9.65
2019-05-10T05:45:18.179Z,9.71
2019-05-10T05:50:24.350Z,9.81
2019-05-10T05:55:32.017Z,9.86
2019-05-10T06:00:44.374Z,9.89
2019-05-10T06:05:43.852Z,9.92
2019-05-10T06:10:56.793Z,9.76
2019-05-10T06:15:59.873Z,9.87
2019-05-10T06:21:03.377Z,10.04
2019-05-10T06:26:21.405Z,10.24
2019-05-10T06:31:15.642Z,10.34
2019-05-10T06:36:21.759Z,10.61
2019-05-10T06:41:27.001Z,10.66
2019-05-10T06:46:32.594Z,10.74
2019-05-10T06:51:42.818Z,10.92
2019-05-10T06:56:45.771Z,10.99
2019-05-10T07:01:52.194Z,11.23
2019-05-10T07:06:57.560Z,11.45
2019-05-10T07:12:09.406Z,11.45
2019-05-10T07:17:11.914Z,11.46
2019-05-10T07:22:21.631Z,11.45
2019-05-10T07:27:25.295Z,11.58
2019-05-10T07:32:30.604Z,11.33
2019-05-10T07:37:35.908Z,11.20
2019-05-10T07:42:45.674Z,11.27
2019-05-10T07:47:48.562Z,11.27
2019-05-10T07:52:53.832Z,11.34
2019-05-10T07:58:04.984Z,11.64
2019-05-10T08:03:15.780Z,11.56
2019-05-10T08:08:13.418Z,11.39
2019-05-10T08:13:23.345Z,11.77
2019-05-10T08:18:25.639Z,12.12
2019-05-10T08:23:32.746Z,12.44
2019-05-10T08:28:42.247Z,12.83
2019-05-10T08:33:53.708Z,12.63
2019-05-10T08:39:04.997Z,12.37
2019-05-10T08:44:02.398Z,12.17
2019-05-10T08:49:07.255Z,12.09
2019-05-10T08:54:12.518Z,12.20
2019-05-10T08:59:23.583Z,12.43
2019-05-10T09:04:25.652Z,12.97
2019-05-10T09:09:33.711Z,12.91
2019-05-10T09:14:38.511Z,12.44
2019-05-10T09:19:44.332Z,12.60
2019-05-10T09:24:50.060Z,12.69
2019-05-10T09:29:55.819Z,12.68
2019-05-10T09:35:07.522Z,12.73
2019-05-10T09:40:09.956Z,12.86
2019-05-10T09:45:15.455Z,13.17
2019-05-10T09:50:22.975Z,13.19
2019-05-10T09:55:28.130Z,13.20
2019-05-10T10:00:38.012Z,13.04
2019-05-10T10:05:42.006Z,12.76
2019-05-10T10:10:47.667Z,12.62
2019-05-10T10:15:53.109Z,12.87
2019-05-10T10:20:58.348Z,13.08
2019-05-10T10:26:03.741Z,13.28
2019-05-10T10:31:09.045Z,13.73
2019-05-10T10:36:14.393Z,13.12
2019-05-10T10:41:26.019Z,12.29
2019-05-10T10:46:28.454Z,11.82
2019-05-10T10:51:34.589Z,11.74
2019-05-10T10:56:40.024Z,11.77
2019-05-10T11:01:50.403Z,12.09
2019-05-10T11:07:08.800Z,12.56
2019-05-10T11:12:00.938Z,13.06
2019-05-10T11:17:06.644Z,13.09
2019-05-10T11:22:12.238Z,13.26
2019-05-10T11:27:17.528Z,13.44
2019-05-10T11:32:22.807Z,13.92
2019-05-10T11:37:32.854Z,14.14
2019-05-10T11:42:37.757Z,14.08
2019-05-10T11:47:41.991Z,14.01
2019-05-10T11:52:51.042Z,13.92
2019-05-10T11:58:03.304Z,13.21
2019-05-10T12:08:12.968Z,12.88
2019-05-10T12:13:20.873Z,12.95
2019-05-10T12:18:26.801Z,13.17
2019-05-10T12:23:31.868Z,13.20
2019-05-10T12:26:04.972Z,12.92
2019-05-10T12:28:37.647Z,13.55
2019-05-10T12:33:45.424Z,13.98
2019-05-10T12:38:50.186Z,13.88
2019-05-10T12:44:02.974Z,13.61
2019-05-10T12:49:04.893Z,14.30
2019-05-10T12:54:11.362Z,14.38
2019-05-10T12:59:17.033Z,14.05
2019-05-10T13:04:27.548Z,13.87
2019-05-10T13:09:39.394Z,14.74
2019-05-10T13:14:40.096Z,14.36
2019-05-10T13:19:43.516Z,14.09
2019-05-10T13:24:48.780Z,13.83
2019-05-10T13:29:54.075Z,13.55
2019-05-10T13:34:59.703Z,13.59
2019-05-10T13:40:08.041Z,13.50
2019-05-10T13:45:13.192Z,13.43
2019-05-10T13:50:18.568Z,13.79
2019-05-10T13:55:23.823Z,13.86
2019-05-10T14:00:34.015Z,13.70
2019-05-10T14:05:39.756Z,14.36
2019-05-10T14:10:43.391Z,14.87
2019-05-10T14:15:49.726Z,14.78
2019-05-10T14:20:54.991Z,14.56
2019-05-10T14:26:00.307Z,14.25
2019-05-10T14:31:06.290Z,14.78
2019-05-10T14:36:11.834Z,14.61
2019-05-10T14:41:17.092Z,14.67
2019-05-10T14:46:22.702Z,15.32
2019-05-10T14:51:44.038Z,14.85
2019-05-10T14:56:35.040Z,14.65
2019-05-10T15:01:42.939Z,14.37
2019-05-10T15:06:47.275Z,14.17
2019-05-10T15:11:52.858Z,14.13
2019-05-10T15:16:58.604Z,14.18
2019-05-10T15:22:04.359Z,14.34
2019-05-10T15:27:09.991Z,14.66
2019-05-10T15:32:15.301Z,14.53
2019-05-10T15:37:21.555Z,14.42
2019-05-10T15:42:30.591Z,14.22
2019-05-10T15:47:48.927Z,14.13
2019-05-10T15:52:46.654Z,14.18
2019-05-10T15:57:51.859Z,14.26
2019-05-10T16:02:57.307Z,14.34
2019-05-10T16:08:03.403Z,14.55
2019-05-10T16:13:08.923Z,15.36
2019-05-10T16:18:14.254Z,15.80
2019-05-10T16:23:20.123Z,15.35
2019-05-10T16:28:25.405Z,15.12
2019-05-10T16:33:31.047Z,14.87
2019-05-10T16:38:36.314Z,14.86
2019-05-10T16:43:41.946Z,14.79
2019-05-10T16:48:47.582Z,14.67
2019-05-10T16:53:52.834Z,14.62
2019-05-10T16:58:59.532Z,15.38
2019-05-10T17:04:05.229Z,15.92
2019-05-10T17:09:18.300Z,15.47
2019-05-10T17:14:18.295Z,15.33
2019-05-10T17:19:27.951Z,14.47
2019-05-10T17:24:32.824Z,14.09
2019-05-10T17:29:38.128Z,13.70
2019-05-10T17:34:43.408Z,13.73
2019-05-10T17:39:48.694Z,14.11
2019-05-10T17:44:55.154Z,13.96
2019-05-10T17:50:01.380Z,13.96
2019-05-10T17:55:10.941Z,13.60
2019-05-10T18:00:14.862Z,13.18
2019-05-10T18:05:20.120Z,12.91
2019-05-10T18:10:26.475Z,12.56
2019-05-10T18:15:33.012Z,12.35
2019-05-10T18:20:42.099Z,12.31
2019-05-10T18:25:45.662Z,12.36
2019-05-10T18:30:50.958Z,12.34
2019-05-10T18:35:56.205Z,12.18
2019-05-10T18:41:05.354Z,11.54
2019-05-10T18:46:08.888Z,11.10
2019-05-10T18:51:18.075Z,10.82
2019-05-10T18:56:25.374Z,10.81
2019-05-10T19:01:32.859Z,10.73
2019-05-10T19:06:36.015Z,10.40
2019-05-10T19:11:41.499Z,10.32
2019-05-10T19:16:48.174Z,10.15
2019-05-10T19:21:53.490Z,9.95
2019-05-10T19:27:01.556Z,10.30
2019-05-10T19:32:11.383Z,10.32
2019-05-10T19:37:28.261Z,10.51
2019-05-10T19:42:22.087Z,10.46
2019-05-10T19:47:27.507Z,10.41
2019-05-10T19:52:33.452Z,10.37
2019-05-10T19:57:38.695Z,10.30
2019-05-10T20:02:44.076Z,10.22
2019-05-10T20:07:49.394Z,10.14
2019-05-10T20:12:54.693Z,9.98
2019-05-10T20:18:00.409Z,9.70
2019-05-10T20:23:05.710Z,9.59
2019-05-10T20:28:11.316Z,9.56
2019-05-10T20:33:16.581Z,9.50
2019-05-10T20:38:21.849Z,9.54
2019-05-10T20:43:27.424Z,9.55
2019-05-10T20:48:33.023Z,9.48
2019-05-10T20:53:38.283Z,9.37
2019-05-10T20:58:43.535Z,9.30
2019-05-10T21:03:48.858Z,9.23
2019-05-10T21:08:54.433Z,9.14
2019-05-10T21:14:00.792Z,9.15
2019-05-10T21:19:06.432Z,9.11
2019-05-10T21:24:11.726Z,9.09
2019-05-10T21:29:17.010Z,9.08
2019-05-10T21:34:22.539Z,8.87
2019-05-10T21:39:27.794Z,8.90
2019-05-10T21:44:33.063Z,8.91
2019-05-10T21:49:38.665Z,8.94
2019-05-10T21:54:43.926Z,8.89
2019-05-10T21:59:50.246Z,8.88
2019-05-10T22:04:55.500Z,8.82
2019-05-10T22:10:00.769Z,8.78
2019-05-10T22:15:06.352Z,8.79
2019-05-10T22:20:11.677Z,8.78
2019-05-10T22:25:17.039Z,8.79
2019-05-10T22:30:22.792Z,8.77
2019-05-10T22:35:28.369Z,8.66
2019-05-10T22:40:33.532Z,8.70
2019-05-10T22:45:39.125Z,8.70
2019-05-10T22:50:44.676Z,8.73
2019-05-10T22:55:49.934Z,8.75
2019-05-10T23:00:55.196Z,8.77
2019-05-10T23:06:00.955Z,8.71
2019-05-10T23:11:06.477Z,8.69
2019-05-10T23:16:11.771Z,8.72
2019-05-10T23:21:17.045Z,8.73
2019-05-10T23:26:22.582Z,8.62
2019-05-10T23:31:27.884Z,8.54
2019-05-10T23:36:33.404Z,8.44
2019-05-10T23:41:38.661Z,8.23
2019-05-10T23:46:43.938Z,8.11
2019-05-10T23:51:49.188Z,8.12
2019-05-10T23:56:54.448Z,8.17
